createdAt,value
2018-04-29T00:00:27.316Z,8.29
2018-04-29T00:01:27.189Z,8.26
2018-04-29T00:02:27.067Z,8.17
2018-04-29T00:03:26.946Z,8.18
2018-04-29T00:04:26.813Z,8.18
2018-04-29T00:05:26.688Z,8.17
2018-04-29T00:06:26.562Z,8.18
2018-04-29T00:07:26.438Z,8.17
2018-04-29T00:08:26.311Z,8.28
2018-04-29T00:09:26.185Z,8.28
2018-04-29T00:10:26.059Z,8.25
2018-04-29T00:11:25.933Z,8.32
2018-04-29T00:12:25.808Z,8.15
2018-04-29T00:13:25.683Z,8.22
2018-04-29T00:14:25.557Z,8.18
2018-04-29T00:15:25.432Z,8.11
2018-04-29T00:16:25.307Z,8.14
2018-04-29T00:17:25.186Z,8.15
2018-04-29T00:18:25.055Z,8.18
2018-04-29T00:19:24.930Z,8.18
2018-04-29T00:20:24.804Z,8.20
2018-04-29T00:21:24.679Z,8.17
2018-04-29T00:22:24.550Z,8.20
2018-04-29T00:23:24.429Z,8.25
2018-04-29T00:24:24.300Z,8.21
2018-04-29T00:25:24.178Z,8.25
2018-04-29T00:26:24.048Z,8.28
2018-04-29T00:27:23.923Z,8.28
2018-04-29T00:28:23.798Z,8.25
2018-04-29T00:29:23.679Z,8.26
2018-04-29T00:30:23.546Z,8.30
2018-04-29T00:31:23.421Z,8.32
2018-04-29T00:32:23.293Z,8.29
2018-04-29T00:33:23.171Z,8.39
2018-04-29T00:34:23.044Z,8.45
2018-04-29T00:35:22.917Z,8.45
2018-04-29T00:36:22.791Z,8.47
2018-04-29T00:37:22.666Z,8.57
2018-04-29T00:38:22.542Z,8.55
2018-04-29T00:39:22.418Z,8.69
2018-04-29T00:40:22.293Z,8.60
2018-04-29T00:41:22.167Z,8.58
2018-04-29T00:42:22.040Z,8.63
2018-04-29T00:43:21.915Z,8.58
2018-04-29T00:44:21.809Z,8.53
2018-04-29T00:45:21.669Z,8.45
2018-04-29T00:46:21.542Z,8.37
2018-04-29T00:47:21.417Z,8.25
2018-04-29T00:48:21.291Z,8.26
2018-04-29T00:49:21.165Z,8.20
2018-04-29T00:50:21.037Z,8.20
2018-04-29T00:51:20.914Z,8.18
2018-04-29T00:52:20.788Z,8.17
2018-04-29T00:53:20.713Z,8.15
2018-04-29T00:54:20.535Z,8.20
2018-04-29T00:55:20.408Z,8.18
2018-04-29T00:56:20.287Z,8.20
2018-04-29T00:57:20.162Z,8.21
2018-04-29T00:58:20.032Z,8.15
2018-04-29T00:59:19.909Z,8.29
2018-04-29T01:00:19.782Z,8.30
2018-04-29T01:01:19.657Z,8.20
2018-04-29T01:02:19.530Z,8.18
2018-04-29T01:03:19.406Z,8.18
2018-04-29T01:04:19.280Z,8.20
2018-04-29T01:05:19.155Z,8.18
2018-04-29T01:06:19.030Z,8.15
2018-04-29T01:07:18.904Z,8.14
2018-04-29T01:08:18.777Z,8.14
2018-04-29T01:09:18.651Z,8.20
2018-04-29T01:10:18.525Z,8.11
2018-04-29T01:11:18.399Z,8.04
2018-04-29T01:12:18.274Z,8.02
2018-04-29T01:13:18.149Z,8.04
2018-04-29T01:14:18.029Z,8.04
2018-04-29T01:15:17.897Z,8.07
2018-04-29T01:16:17.772Z,8.11
2018-04-29T01:17:17.646Z,8.20
2018-04-29T01:18:17.519Z,8.18
2018-04-29T01:19:17.396Z,8.25
2018-04-29T01:20:17.268Z,8.22
2018-04-29T01:21:17.142Z,8.20
2018-04-29T01:22:17.017Z,8.15
2018-04-29T01:23:16.891Z,8.20
2018-04-29T01:24:16.772Z,8.17
2018-04-29T01:25:16.639Z,8.18
2018-04-29T01:26:16.515Z,8.21
2018-04-29T01:27:16.388Z,8.29
2018-04-29T01:28:16.264Z,8.26
2018-04-29T01:29:16.138Z,8.26
2018-04-29T01:30:16.012Z,8.14
2018-04-29T01:31:15.886Z,8.18
2018-04-29T01:32:15.761Z,8.14
2018-04-29T01:33:15.634Z,8.21
2018-04-29T01:34:15.508Z,8.21
2018-04-29T01:35:15.384Z,8.18
2018-04-29T01:36:15.257Z,8.18
2018-04-29T01:37:15.132Z,8.17
2018-04-29T01:38:15.006Z,7.99
2018-04-29T01:39:14.880Z,8.10
2018-04-29T01:40:14.755Z,8.02
2018-04-29T01:41:14.633Z,8.03
2018-04-29T01:42:14.505Z,8.07
2018-04-29T01:43:14.375Z,8.02
2018-04-29T01:44:14.255Z,8.07
2018-04-29T01:45:14.126Z,8.14
2018-04-29T01:46:13.998Z,8.03
2018-04-29T01:47:13.873Z,8.04
2018-04-29T01:48:13.751Z,8.03
2018-04-29T01:49:13.624Z,8.04
2018-04-29T01:50:13.499Z,8.03
2018-04-29T01:51:13.373Z,7.96
2018-04-29T01:52:13.249Z,7.97
2018-04-29T01:53:13.121Z,7.94
2018-04-29T01:54:12.997Z,7.94
2018-04-29T01:55:12.874Z,7.92
2018-04-29T01:56:12.742Z,7.94
2018-04-29T01:57:12.619Z,8.07
2018-04-29T01:58:12.490Z,8.10
2018-04-29T01:59:12.367Z,8.04
2018-04-29T02:00:12.242Z,8.17
2018-04-29T02:01:12.117Z,8.20
2018-04-29T02:02:11.989Z,8.26
2018-04-29T02:03:11.863Z,8.29
2018-04-29T02:04:11.736Z,8.17
2018-04-29T02:05:11.609Z,8.29
2018-04-29T02:06:11.487Z,8.29
2018-04-29T02:07:11.359Z,8.30
2018-04-29T02:08:11.235Z,8.28
2018-04-29T02:09:11.107Z,8.37
2018-04-29T02:10:10.980Z,8.29
2018-04-29T02:11:10.857Z,8.32
2018-04-29T02:12:10.729Z,8.32
2018-04-29T02:13:10.604Z,8.28
2018-04-29T02:14:10.480Z,8.29
2018-04-29T02:15:10.350Z,8.45
2018-04-29T02:16:10.226Z,8.45
2018-04-29T02:17:10.101Z,8.45
2018-04-29T02:18:09.974Z,8.45
2018-04-29T02:19:09.850Z,8.51
2018-04-29T02:20:09.725Z,8.47
2018-04-29T02:21:09.599Z,8.53
2018-04-29T02:22:09.477Z,8.48
2018-04-29T02:23:09.347Z,8.45
2018-04-29T02:24:09.220Z,8.51
2018-04-29T02:25:09.097Z,8.58
2018-04-29T02:26:08.970Z,8.55
2018-04-29T02:27:08.850Z,8.57
2018-04-29T02:28:08.726Z,8.55
2018-04-29T02:29:08.594Z,8.60
2018-04-29T02:30:08.467Z,8.65
2018-04-29T02:31:08.347Z,8.66
2018-04-29T02:32:08.223Z,8.60
2018-04-29T02:33:08.092Z,8.66
2018-04-29T02:34:07.966Z,8.60
2018-04-29T02:35:07.840Z,8.62
2018-04-29T02:36:07.716Z,8.68
2018-04-29T02:37:07.591Z,8.62
2018-04-29T02:38:07.464Z,8.50
2018-04-29T02:39:07.338Z,8.60
2018-04-29T02:40:07.212Z,8.53
2018-04-29T02:41:07.088Z,8.53
2018-04-29T02:42:06.961Z,8.54
2018-04-29T02:43:06.838Z,8.48
2018-04-29T02:44:06.712Z,8.51
2018-04-29T02:45:06.585Z,8.51
2018-04-29T02:46:06.462Z,8.60
2018-04-29T02:47:06.334Z,8.68
2018-04-29T02:48:06.210Z,8.63
2018-04-29T02:49:06.084Z,8.62
2018-04-29T02:50:05.959Z,8.71
2018-04-29T02:51:05.833Z,8.76
2018-04-29T02:52:05.708Z,8.72
2018-04-29T02:53:05.591Z,8.87
2018-04-29T02:54:05.455Z,8.76
2018-04-29T02:55:05.329Z,8.72
2018-04-29T02:56:05.208Z,8.90
2018-04-29T02:57:05.082Z,8.86
2018-04-29T02:58:04.955Z,8.84
2018-04-29T02:59:04.839Z,8.81
2018-04-29T03:00:04.704Z,8.79
2018-04-29T03:01:04.580Z,8.78
2018-04-29T03:02:04.453Z,8.79
2018-04-29T03:03:04.329Z,8.78
2018-04-29T03:04:04.212Z,8.76
2018-04-29T03:05:04.078Z,8.93
2018-04-29T03:06:03.954Z,9.02
2018-04-29T03:07:03.828Z,9.09
2018-04-29T03:08:03.702Z,9.02
2018-04-29T03:09:03.575Z,8.97
2018-04-29T03:10:03.450Z,8.97
2018-04-29T03:11:03.326Z,8.96
2018-04-29T03:12:03.202Z,8.94
2018-04-29T03:13:03.078Z,8.97
2018-04-29T03:14:02.950Z,9.01
2018-04-29T03:15:02.824Z,9.06
2018-04-29T03:16:02.697Z,8.94
2018-04-29T03:17:02.575Z,8.97
2018-04-29T03:18:02.453Z,8.91
2018-04-29T03:19:02.324Z,8.87
2018-04-29T03:20:02.201Z,8.90
2018-04-29T03:21:02.079Z,8.93
2018-04-29T03:22:01.947Z,8.88
2018-04-29T03:23:01.820Z,8.93
2018-04-29T03:24:01.695Z,8.86
2018-04-29T03:25:01.573Z,8.88
2018-04-29T03:26:01.444Z,8.90
2018-04-29T03:27:01.322Z,8.84
2018-04-29T03:28:01.195Z,8.83
2018-04-29T03:29:01.070Z,8.90
2018-04-29T03:30:00.946Z,8.93
2018-04-29T03:31:00.819Z,8.91
2018-04-29T03:32:00.694Z,8.86
2018-04-29T03:33:00.570Z,8.86
2018-04-29T03:34:00.442Z,8.75
2018-04-29T03:35:00.322Z,8.76
2018-04-29T03:36:00.194Z,8.76
2018-04-29T03:37:00.069Z,8.60
2018-04-29T03:37:59.944Z,8.63
2018-04-29T03:38:59.821Z,8.72
2018-04-29T03:39:59.697Z,8.63
2018-04-29T03:40:59.567Z,8.60
2018-04-29T03:41:59.441Z,8.55
2018-04-29T03:42:59.315Z,8.60
2018-04-29T03:43:59.195Z,8.60
2018-04-29T03:44:59.066Z,8.58
2018-04-29T03:45:58.943Z,8.58
2018-04-29T03:46:58.815Z,8.63
2018-04-29T03:47:58.689Z,8.60
2018-04-29T03:48:58.565Z,8.60
2018-04-29T03:49:58.439Z,8.63
2018-04-29T03:50:58.315Z,8.60
2018-04-29T03:51:58.188Z,8.57
2018-04-29T03:52:58.065Z,8.60
2018-04-29T03:53:57.939Z,8.60
2018-04-29T03:54:57.812Z,8.65
2018-04-29T03:55:57.693Z,8.68
2018-04-29T03:56:57.562Z,8.63
2018-04-29T03:57:57.435Z,8.60
2018-04-29T03:58:57.311Z,8.58
2018-04-29T03:59:57.186Z,8.71
2018-04-29T04:00:57.061Z,8.75
2018-04-29T04:01:56.933Z,8.76
2018-04-29T04:02:56.808Z,8.75
2018-04-29T04:03:56.684Z,8.76
2018-04-29T04:04:56.558Z,8.71
2018-04-29T04:05:56.432Z,8.81
2018-04-29T04:06:56.304Z,8.79
2018-04-29T04:07:56.182Z,8.84
2018-04-29T04:08:56.059Z,8.91
2018-04-29T04:09:55.931Z,8.93
2018-04-29T04:10:55.805Z,8.87
2018-04-29T04:11:55.685Z,8.94
2018-04-29T04:12:55.554Z,8.94
2018-04-29T04:13:55.429Z,8.94
2018-04-29T04:14:55.304Z,8.96
2018-04-29T04:15:55.176Z,8.94
2018-04-29T04:16:55.052Z,9.04
2018-04-29T04:17:54.928Z,8.97
2018-04-29T04:18:54.803Z,9.04
2018-04-29T04:19:54.677Z,9.10
2018-04-29T04:20:54.549Z,9.01
2018-04-29T04:21:54.424Z,9.21
2018-04-29T04:22:54.299Z,9.21
2018-04-29T04:23:54.175Z,9.32
2018-04-29T04:24:54.050Z,9.25
2018-04-29T04:25:53.927Z,9.28
2018-04-29T04:26:53.799Z,9.35
2018-04-29T04:27:53.675Z,9.28
2018-04-29T04:28:53.548Z,9.40
2018-04-29T04:29:53.423Z,9.39
2018-04-29T04:30:53.297Z,9.40
2018-04-29T04:31:53.173Z,9.57
2018-04-29T04:32:53.052Z,9.57
2018-04-29T04:33:52.923Z,9.52
2018-04-29T04:34:52.798Z,9.56
2018-04-29T04:35:52.673Z,9.58
2018-04-29T04:36:52.549Z,9.57
2018-04-29T04:37:52.422Z,9.57
2018-04-29T04:38:52.297Z,9.57
2018-04-29T04:39:52.170Z,9.64
2018-04-29T04:40:52.048Z,9.61
2018-04-29T04:41:51.923Z,9.50
2018-04-29T04:42:51.798Z,9.56
2018-04-29T04:43:51.675Z,9.58
2018-04-29T04:44:51.549Z,9.66
2018-04-29T04:45:51.427Z,9.70
2018-04-29T04:46:51.296Z,9.73
2018-04-29T04:49:22.650Z,9.70
2018-04-29T04:50:22.474Z,9.64
2018-04-29T04:52:15.134Z,9.70
2018-04-29T04:53:15.000Z,9.71
2018-04-29T04:54:14.875Z,9.73
2018-04-29T04:55:14.751Z,9.70
2018-04-29T04:56:14.626Z,9.73
2018-04-29T04:57:14.502Z,9.79
2018-04-29T04:58:14.435Z,9.73
2018-04-29T04:59:14.252Z,9.64
2018-04-29T05:00:14.127Z,9.70
2018-04-29T05:01:14.011Z,9.81
2018-04-29T05:02:13.878Z,9.76
2018-04-29T05:03:13.754Z,9.76
2018-04-29T05:04:13.630Z,9.76
2018-04-29T05:05:13.505Z,9.81
2018-04-29T05:06:13.381Z,9.73
2018-04-29T05:07:13.293Z,9.81
2018-04-29T05:08:13.131Z,9.75
2018-04-29T05:09:13.012Z,9.96
2018-04-29T05:10:12.883Z,9.86
2018-04-29T05:11:12.758Z,9.89
2018-04-29T05:12:12.634Z,9.97
2018-04-29T05:13:12.510Z,9.89
2018-04-29T05:14:12.384Z,10.04
2018-04-29T05:15:12.261Z,10.06
2018-04-29T05:16:12.137Z,10.15
2018-04-29T05:17:12.013Z,10.03
2018-04-29T05:18:11.886Z,10.14
2018-04-29T05:19:11.762Z,10.25
2018-04-29T05:20:11.640Z,10.26
2018-04-29T05:21:11.516Z,10.39
2018-04-29T05:22:11.422Z,10.34
2018-04-29T05:23:11.268Z,10.42
2018-04-29T05:24:11.143Z,10.52
2018-04-29T05:25:11.021Z,10.55
2018-04-29T05:26:10.895Z,10.60
2018-04-29T05:27:10.771Z,10.62
2018-04-29T05:28:10.647Z,10.71
2018-04-29T05:29:10.524Z,10.66
2018-04-29T05:30:10.399Z,10.78
2018-04-29T05:31:10.275Z,10.83
2018-04-29T05:32:10.152Z,10.88
2018-04-29T05:33:10.028Z,10.91
2018-04-29T05:34:09.904Z,11.02
2018-04-29T05:35:09.781Z,10.98
2018-04-29T05:36:09.658Z,11.01
2018-04-29T05:37:09.534Z,11.06
2018-04-29T05:38:09.408Z,11.11
2018-04-29T05:39:09.288Z,11.17
2018-04-29T05:40:09.164Z,11.34
2018-04-29T05:41:09.055Z,11.39
2018-04-29T05:42:08.916Z,11.39
2018-04-29T05:43:08.795Z,11.43
2018-04-29T05:44:08.671Z,11.53
2018-04-29T05:45:08.548Z,11.57
2018-04-29T05:46:08.422Z,11.74
2018-04-29T05:47:08.299Z,11.71
2018-04-29T05:48:08.176Z,11.89
2018-04-29T05:49:08.054Z,12.02
2018-04-29T05:50:07.936Z,12.04
2018-04-29T05:51:07.809Z,12.11
2018-04-29T05:52:07.687Z,12.12
2018-04-29T05:53:07.563Z,12.21
2018-04-29T05:54:07.440Z,12.26
2018-04-29T05:55:07.316Z,12.34
2018-04-29T05:56:07.194Z,12.21
2018-04-29T05:57:07.071Z,12.33
2018-04-29T05:58:06.950Z,12.31
2018-04-29T05:59:06.827Z,12.38
2018-04-29T06:00:06.707Z,12.31
2018-04-29T06:01:06.583Z,12.34
2018-04-29T06:02:06.459Z,12.33
2018-04-29T06:03:06.344Z,12.33
2018-04-29T06:04:06.215Z,12.37
2018-04-29T06:05:06.094Z,12.30
2018-04-29T06:06:05.971Z,12.42
2018-04-29T06:07:05.848Z,12.45
2018-04-29T06:08:05.728Z,12.38
2018-04-29T06:09:05.603Z,12.34
2018-04-29T06:10:05.480Z,12.38
2018-04-29T06:11:05.361Z,12.49
2018-04-29T06:12:05.238Z,12.62
2018-04-29T06:13:05.116Z,12.66
2018-04-29T06:14:05.027Z,12.75
2018-04-29T06:15:04.872Z,12.75
2018-04-29T06:16:04.749Z,12.66
2018-04-29T06:17:04.627Z,12.64
2018-04-29T06:18:04.502Z,12.60
2018-04-29T06:19:04.381Z,12.46
2018-04-29T06:20:04.259Z,12.51
2018-04-29T06:21:04.138Z,12.37
2018-04-29T06:22:04.015Z,12.34
2018-04-29T06:23:03.893Z,12.30
2018-04-29T06:24:03.771Z,12.34
2018-04-29T06:25:03.651Z,12.37
2018-04-29T06:26:03.610Z,12.45
2018-04-29T06:27:03.406Z,12.66
2018-04-29T06:28:03.283Z,12.84
2018-04-29T06:29:03.161Z,13.09
2018-04-29T06:30:03.041Z,13.24
2018-04-29T06:31:02.917Z,13.30
2018-04-29T06:32:02.810Z,13.15
2018-04-29T06:33:02.675Z,13.14
2018-04-29T06:34:02.550Z,13.32
2018-04-29T06:35:02.431Z,13.15
2018-04-29T06:36:02.316Z,12.84
2018-04-29T06:37:02.188Z,12.85
2018-04-29T06:38:02.065Z,12.75
2018-04-29T06:39:01.942Z,12.75
2018-04-29T06:40:01.821Z,12.71
2018-04-29T06:41:01.700Z,12.64
2018-04-29T06:42:01.577Z,12.66
2018-04-29T06:43:01.456Z,12.49
2018-04-29T06:44:01.332Z,12.39
2018-04-29T06:45:01.211Z,12.20
2018-04-29T06:46:01.090Z,12.20
2018-04-29T06:47:00.971Z,12.23
2018-04-29T06:48:00.848Z,12.21
2018-04-29T06:49:00.723Z,12.16
2018-04-29T06:50:00.600Z,12.26
2018-04-29T06:51:00.478Z,12.30
2018-04-29T06:52:00.356Z,12.20
2018-04-29T06:53:00.233Z,12.19
2018-04-29T06:54:00.120Z,12.21
2018-04-29T06:54:59.987Z,12.19
2018-04-29T06:55:59.863Z,12.23
2018-04-29T06:56:59.744Z,12.21
2018-04-29T06:57:59.620Z,12.21
2018-04-29T06:58:59.498Z,12.11
2018-04-29T06:59:59.377Z,12.09
2018-04-29T07:00:59.254Z,12.09
2018-04-29T07:01:59.130Z,12.15
2018-04-29T07:02:59.009Z,12.08
2018-04-29T07:03:58.886Z,12.26
2018-04-29T07:04:58.763Z,12.16
2018-04-29T07:05:58.640Z,12.11
2018-04-29T07:06:58.521Z,12.04
2018-04-29T07:07:58.396Z,11.89
2018-04-29T07:08:58.273Z,11.85
2018-04-29T07:09:58.150Z,11.74
2018-04-29T07:10:58.027Z,11.77
2018-04-29T07:11:57.905Z,11.83
2018-04-29T07:12:57.783Z,12.08
2018-04-29T07:13:57.658Z,12.09
2018-04-29T07:14:57.538Z,12.11
2018-04-29T07:15:57.424Z,12.05
2018-04-29T07:16:57.292Z,12.05
2018-04-29T07:17:57.169Z,11.94
2018-04-29T07:18:57.047Z,12.20
2018-04-29T07:19:57.000Z,12.27
2018-04-29T07:20:56.802Z,12.46
2018-04-29T07:21:56.678Z,12.49
2018-04-29T07:22:56.557Z,12.37
2018-04-29T07:23:56.433Z,12.08
2018-04-29T07:24:56.314Z,12.05
2018-04-29T07:25:56.189Z,12.12
2018-04-29T07:26:56.068Z,12.12
2018-04-29T07:27:55.944Z,12.16
2018-04-29T07:28:55.829Z,12.38
2018-04-29T07:29:55.699Z,12.46
2018-04-29T07:30:55.578Z,12.62
2018-04-29T07:31:55.453Z,12.66
2018-04-29T07:32:55.332Z,12.77
2018-04-29T07:33:55.208Z,12.85
2018-04-29T07:34:55.091Z,12.87
2018-04-29T07:35:54.962Z,13.02
2018-04-29T07:36:54.841Z,13.00
2018-04-29T07:37:54.720Z,13.03
2018-04-29T07:38:54.595Z,13.25
2018-04-29T07:39:54.568Z,13.17
2018-04-29T07:40:54.350Z,13.37
2018-04-29T07:41:54.230Z,13.44
2018-04-29T07:42:54.106Z,13.62
2018-04-29T07:43:53.982Z,13.63
2018-04-29T07:44:53.861Z,13.69
2018-04-29T07:45:53.737Z,13.96
2018-04-29T07:46:53.617Z,14.12
2018-04-29T07:47:53.505Z,14.10
2018-04-29T07:48:53.375Z,13.98
2018-04-29T07:49:53.251Z,13.79
2018-04-29T07:50:53.130Z,13.84
2018-04-29T07:51:53.010Z,13.92
2018-04-29T07:52:52.884Z,14.07
2018-04-29T07:53:52.765Z,14.12
2018-04-29T07:54:52.646Z,14.12
2018-04-29T07:55:52.520Z,14.09
2018-04-29T07:56:52.400Z,14.06
2018-04-29T07:57:52.278Z,14.17
2018-04-29T07:58:52.195Z,14.25
2018-04-29T07:59:52.037Z,14.20
2018-04-29T08:00:52.014Z,14.06
2018-04-29T08:01:51.793Z,14.12
2018-04-29T08:02:51.672Z,13.88
2018-04-29T08:03:51.549Z,13.83
2018-04-29T08:04:51.433Z,13.67
2018-04-29T08:05:51.307Z,13.46
2018-04-29T08:06:51.292Z,13.14
2018-04-29T08:07:51.064Z,13.30
2018-04-29T08:08:50.944Z,13.47
2018-04-29T08:09:50.821Z,13.56
2018-04-29T08:10:50.701Z,13.80
2018-04-29T08:11:50.578Z,13.89
2018-04-29T08:12:50.466Z,13.87
2018-04-29T08:13:50.336Z,13.71
2018-04-29T08:14:50.216Z,13.70
2018-04-29T08:15:50.107Z,13.77
2018-04-29T08:16:49.973Z,13.73
2018-04-29T08:17:49.851Z,13.62
2018-04-29T08:18:49.730Z,13.43
2018-04-29T08:19:49.612Z,13.44
2018-04-29T08:20:49.488Z,13.62
2018-04-29T08:21:49.365Z,13.71
2018-04-29T08:22:49.350Z,13.88
2018-04-29T08:23:49.123Z,13.99
2018-04-29T08:24:49.004Z,13.88
2018-04-29T08:25:48.880Z,14.04
2018-04-29T08:26:48.760Z,14.12
2018-04-29T08:27:48.636Z,14.12
2018-04-29T08:28:48.515Z,14.14
2018-04-29T08:29:48.395Z,14.16
2018-04-29T08:30:48.275Z,14.02
2018-04-29T08:31:48.153Z,14.09
2018-04-29T08:32:48.030Z,13.99
2018-04-29T08:33:47.909Z,13.91
2018-04-29T08:34:47.790Z,13.84
2018-04-29T08:35:47.666Z,13.79
2018-04-29T08:36:47.546Z,13.83
2018-04-29T08:37:47.429Z,13.81
2018-04-29T08:38:47.305Z,13.87
2018-04-29T08:39:47.188Z,13.79
2018-04-29T08:40:47.067Z,13.88
2018-04-29T08:41:46.990Z,13.92
2018-04-29T08:42:46.817Z,13.84
2018-04-29T08:43:46.699Z,13.73
2018-04-29T08:44:46.580Z,13.54
2018-04-29T08:45:46.455Z,13.56
2018-04-29T08:46:46.335Z,13.67
2018-04-29T08:47:46.212Z,13.71
2018-04-29T08:48:46.092Z,13.77
2018-04-29T08:49:45.972Z,13.81
2018-04-29T08:50:45.848Z,13.92
2018-04-29T08:51:45.728Z,14.09
2018-04-29T08:52:45.609Z,14.19
2018-04-29T08:53:45.485Z,14.28
2018-04-29T08:54:45.366Z,14.28
2018-04-29T08:55:45.243Z,14.37
2018-04-29T08:56:45.121Z,14.47
2018-04-29T08:57:45.000Z,14.43
2018-04-29T08:58:44.883Z,14.46
2018-04-29T08:59:44.759Z,14.68
2018-04-29T09:00:44.637Z,14.56
2018-04-29T09:01:44.534Z,14.68
2018-04-29T09:02:44.396Z,14.78
2018-04-29T09:03:44.369Z,14.83
2018-04-29T09:04:44.153Z,14.86
2018-04-29T09:05:44.032Z,15.09
2018-04-29T09:06:43.915Z,15.30
2018-04-29T09:07:43.790Z,15.60
2018-04-29T09:08:43.672Z,15.89
2018-04-29T09:09:43.549Z,16.09
2018-04-29T09:10:43.427Z,16.35
2018-04-29T09:11:43.307Z,16.30
2018-04-29T09:12:43.186Z,16.50
2018-04-29T09:13:43.066Z,16.58
2018-04-29T09:14:42.947Z,16.58
2018-04-29T09:15:42.826Z,16.45
2018-04-29T09:16:42.705Z,16.23
2018-04-29T09:17:42.644Z,16.22
2018-04-29T09:18:42.466Z,15.93
2018-04-29T09:19:42.347Z,16.14
2018-04-29T09:20:42.226Z,16.09
2018-04-29T09:21:42.108Z,16.20
2018-04-29T09:22:41.988Z,16.18
2018-04-29T09:23:41.865Z,16.34
2018-04-29T09:24:41.748Z,16.16
2018-04-29T09:25:41.628Z,16.16
2018-04-29T09:26:41.508Z,16.16
2018-04-29T09:27:41.390Z,16.20
2018-04-29T09:28:41.268Z,16.53
2018-04-29T09:29:41.149Z,16.52
2018-04-29T09:30:41.031Z,16.40
2018-04-29T09:31:40.911Z,16.48
2018-04-29T09:32:40.790Z,16.41
2018-04-29T09:33:40.672Z,16.41
2018-04-29T09:34:40.557Z,16.42
2018-04-29T09:35:40.432Z,16.26
2018-04-29T09:36:40.313Z,16.20
2018-04-29T09:37:40.191Z,15.94
2018-04-29T09:38:40.074Z,16.16
2018-04-29T09:39:39.956Z,16.20
2018-04-29T09:40:39.833Z,16.31
2018-04-29T09:41:39.714Z,16.26
2018-04-29T09:42:39.597Z,16.37
2018-04-29T09:43:39.504Z,16.59
2018-04-29T09:44:39.356Z,16.67
2018-04-29T09:45:39.237Z,16.42
2018-04-29T09:46:39.114Z,16.31
2018-04-29T09:47:38.997Z,16.23
2018-04-29T09:48:38.916Z,16.25
2018-04-29T09:49:38.756Z,16.37
2018-04-29T09:50:38.635Z,16.34
2018-04-29T09:51:38.517Z,16.42
2018-04-29T09:52:38.398Z,16.52
2018-04-29T09:53:38.277Z,16.49
2018-04-29T09:54:38.157Z,16.49
2018-04-29T09:55:38.039Z,16.34
2018-04-29T09:56:37.920Z,16.31
2018-04-29T09:57:37.798Z,16.37
2018-04-29T09:58:37.678Z,16.60
2018-04-29T09:59:37.560Z,16.75
2018-04-29T10:00:37.447Z,16.55
2018-04-29T10:01:37.320Z,16.52
2018-04-29T10:02:37.202Z,16.60
2018-04-29T10:03:37.087Z,16.62
2018-04-29T10:04:36.962Z,16.80
2018-04-29T10:05:36.840Z,16.70
2018-04-29T10:06:36.722Z,16.88
2018-04-29T10:07:36.603Z,16.89
2018-04-29T10:08:36.483Z,17.04
2018-04-29T10:09:36.398Z,17.23
2018-04-29T10:10:36.245Z,17.35
2018-04-29T10:11:36.127Z,17.28
2018-04-29T10:12:36.006Z,17.13
2018-04-29T10:13:35.887Z,17.04
2018-04-29T10:14:35.769Z,16.86
2018-04-29T10:15:35.650Z,16.71
2018-04-29T10:16:35.532Z,16.58
2018-04-29T10:17:35.410Z,16.78
2018-04-29T10:18:35.296Z,16.73
2018-04-29T10:19:35.174Z,16.70
2018-04-29T10:20:35.057Z,16.68
2018-04-29T10:21:34.934Z,16.65
2018-04-29T10:22:34.815Z,16.70
2018-04-29T10:23:34.695Z,16.65
2018-04-29T10:24:34.586Z,16.70
2018-04-29T10:25:34.456Z,16.71
2018-04-29T10:26:34.340Z,16.67
2018-04-29T10:27:34.220Z,16.85
2018-04-29T10:28:34.098Z,16.71
2018-04-29T10:29:33.979Z,16.75
2018-04-29T10:30:33.861Z,16.49
2018-04-29T10:31:33.741Z,16.42
2018-04-29T10:32:33.621Z,16.45
2018-04-29T10:33:33.500Z,16.49
2018-04-29T10:34:33.382Z,16.56
2018-04-29T10:35:33.263Z,16.83
2018-04-29T10:36:33.148Z,17.06
2018-04-29T10:37:33.025Z,17.20
2018-04-29T10:38:32.906Z,17.28
2018-04-29T10:39:32.787Z,17.48
2018-04-29T10:40:32.668Z,17.41
2018-04-29T10:41:32.548Z,17.38
2018-04-29T10:42:32.430Z,17.43
2018-04-29T10:43:32.309Z,17.41
2018-04-29T10:44:32.191Z,17.29
2018-04-29T10:45:32.071Z,17.26
2018-04-29T10:46:31.956Z,17.28
2018-04-29T10:47:31.836Z,17.51
2018-04-29T10:48:31.715Z,17.78
2018-04-29T10:49:31.595Z,18.00
2018-04-29T10:50:31.476Z,17.95
2018-04-29T10:51:31.359Z,18.04
2018-04-29T10:52:31.279Z,17.81
2018-04-29T10:53:31.122Z,17.84
2018-04-29T10:54:31.003Z,17.67
2018-04-29T10:55:30.886Z,17.51
2018-04-29T10:56:30.768Z,17.29
2018-04-29T10:57:30.648Z,17.28
2018-04-29T10:58:30.530Z,17.22
2018-04-29T10:59:30.411Z,16.90
2018-04-29T11:00:30.296Z,16.88
2018-04-29T11:01:30.174Z,16.85
2018-04-29T11:02:30.056Z,16.77
2018-04-29T11:03:29.946Z,16.81
2018-04-29T11:04:29.820Z,16.75
2018-04-29T11:05:29.700Z,16.73
2018-04-29T11:06:29.581Z,16.85
2018-04-29T11:07:29.461Z,16.88
2018-04-29T11:08:29.342Z,16.78
2018-04-29T11:09:29.222Z,16.85
2018-04-29T11:10:29.102Z,16.71
2018-04-29T11:11:28.985Z,16.81
2018-04-29T11:12:28.865Z,16.85
2018-04-29T11:13:28.745Z,16.92
2018-04-29T11:14:28.628Z,16.80
2018-04-29T11:15:28.507Z,16.58
2018-04-29T11:16:28.388Z,16.42
2018-04-29T11:17:28.268Z,16.85
2018-04-29T11:18:28.152Z,17.69
2018-04-29T11:19:28.030Z,17.79
2018-04-29T11:20:27.910Z,18.12
2018-04-29T11:21:27.790Z,18.86
2018-04-29T11:22:27.679Z,19.35
2018-04-29T11:23:27.552Z,19.24
2018-04-29T11:24:27.434Z,19.01
2018-04-29T11:25:27.317Z,18.59
2018-04-29T11:26:27.196Z,18.98
2018-04-29T11:27:27.076Z,18.91
2018-04-29T11:28:26.961Z,18.86
2018-04-29T11:29:26.845Z,19.33
2018-04-29T11:30:26.724Z,19.42
2018-04-29T11:31:26.607Z,19.53
2018-04-29T11:32:26.487Z,19.36
2018-04-29T11:33:26.372Z,19.18
2018-04-29T11:34:26.251Z,18.95
2018-04-29T11:35:26.135Z,18.87
2018-04-29T11:36:26.017Z,18.95
2018-04-29T11:37:25.901Z,19.05
2018-04-29T11:38:25.783Z,19.73
2018-04-29T11:39:25.663Z,20.20
2018-04-29T11:40:25.580Z,20.02
2018-04-29T11:41:25.431Z,20.06
2018-04-29T11:42:25.313Z,19.50
2018-04-29T11:43:25.196Z,19.70
2018-04-29T11:44:25.079Z,19.24
2018-04-29T11:45:24.963Z,18.70
2018-04-29T11:46:24.845Z,18.64
2018-04-29T11:47:24.729Z,19.01
2018-04-29T11:48:24.613Z,18.99
2018-04-29T11:49:24.493Z,19.31
2018-04-29T11:50:24.379Z,19.33
2018-04-29T11:51:24.261Z,19.17
2018-04-29T11:52:24.145Z,19.42
2018-04-29T11:53:24.025Z,19.24
2018-04-29T11:54:23.912Z,19.32
2018-04-29T11:55:23.792Z,18.31
2018-04-29T11:56:23.677Z,18.10
2018-04-29T11:57:23.558Z,18.39
2018-04-29T11:58:23.440Z,18.61
2018-04-29T11:59:23.326Z,19.33
2018-04-29T12:00:23.208Z,19.15
2018-04-29T12:01:23.090Z,19.58
2018-04-29T12:02:22.971Z,20.50
2018-04-29T12:03:22.856Z,20.25
2018-04-29T12:04:22.739Z,20.51
2018-04-29T12:05:22.621Z,20.08
2018-04-29T12:06:22.506Z,19.23
2018-04-29T12:07:22.387Z,19.05
2018-04-29T12:08:22.273Z,19.05
2018-04-29T12:09:22.185Z,19.14
2018-04-29T12:10:22.042Z,19.11
2018-04-29T12:11:21.920Z,18.68
2018-04-29T12:12:21.871Z,18.44
2018-04-29T12:13:21.689Z,18.25
2018-04-29T12:14:21.568Z,18.22
2018-04-29T12:15:21.452Z,18.31
2018-04-29T12:16:21.413Z,18.43
2018-04-29T12:17:21.219Z,19.33
2018-04-29T12:18:21.107Z,19.25
2018-04-29T12:19:20.983Z,18.58
2018-04-29T12:20:20.865Z,18.33
2018-04-29T12:21:20.749Z,18.19
2018-04-29T12:22:20.632Z,18.04
2018-04-29T12:23:20.519Z,17.91
2018-04-29T12:24:20.398Z,17.74
2018-04-29T12:25:20.279Z,17.62
2018-04-29T12:26:20.160Z,17.46
2018-04-29T12:27:20.043Z,17.36
2018-04-29T12:28:19.926Z,17.48
2018-04-29T12:29:19.807Z,17.35
2018-04-29T12:30:19.690Z,17.38
2018-04-29T12:31:19.570Z,17.43
2018-04-29T12:32:19.453Z,17.46
2018-04-29T12:33:19.336Z,17.53
2018-04-29T12:34:19.220Z,17.51
2018-04-29T12:35:19.098Z,17.43
2018-04-29T12:36:18.980Z,17.47
2018-04-29T12:37:18.862Z,17.48
2018-04-29T12:38:18.799Z,18.37
2018-04-29T12:39:18.623Z,18.49
2018-04-29T12:40:18.504Z,17.91
2018-04-29T12:41:18.387Z,17.47
2018-04-29T12:42:18.266Z,17.35
2018-04-29T12:43:18.149Z,17.28
2018-04-29T12:44:18.036Z,17.53
2018-04-29T12:45:17.909Z,18.58
2018-04-29T12:46:17.799Z,19.02
2018-04-29T12:47:17.675Z,19.29
2018-04-29T12:48:17.556Z,19.90
2018-04-29T12:49:17.438Z,19.69
2018-04-29T12:50:17.322Z,18.91
2018-04-29T12:51:17.202Z,18.64
2018-04-29T12:52:17.131Z,19.32
2018-04-29T12:53:16.965Z,18.98
2018-04-29T12:54:16.847Z,18.68
2018-04-29T12:55:16.731Z,18.39
2018-04-29T12:56:16.614Z,18.07
2018-04-29T12:57:16.494Z,17.54
2018-04-29T12:58:16.377Z,18.07
2018-04-29T12:59:16.259Z,17.84
2018-04-29T13:00:16.150Z,17.84
2018-04-29T13:01:16.021Z,18.40
2018-04-29T13:02:15.905Z,18.83
2018-04-29T13:03:15.789Z,20.43